createdAt,value
2018-03-02T00:00:02.813Z,65.43
2018-03-02T00:02:30.470Z,65.33
2018-03-02T00:04:58.264Z,65.26
2018-03-02T00:07:26.043Z,65.25
2018-03-02T00:09:53.753Z,65.57
2018-03-02T00:12:21.384Z,65.56
2018-03-02T00:14:49.032Z,65.29
2018-03-02T00:17:16.736Z,65.47
2018-03-02T00:19:44.398Z,65.63
2018-03-02T00:22:12.077Z,65.57
2018-03-02T00:24:39.753Z,66.04
2018-03-02T00:27:07.336Z,66.10
2018-03-02T00:29:35.005Z,65.69
2018-03-02T00:32:02.692Z,65.77
2018-03-02T00:34:30.262Z,65.75
2018-03-02T00:36:57.884Z,65.81
2018-03-02T00:39:25.491Z,65.93
2018-03-02T00:41:53.195Z,66.06
2018-03-02T00:44:20.969Z,66.22
2018-03-02T00:46:48.630Z,65.96
2018-03-02T00:49:16.306Z,65.82
2018-03-02T00:51:43.989Z,66.04
2018-03-02T00:54:11.655Z,66.44
2018-03-02T00:56:39.447Z,66.21
2018-03-02T00:59:07.185Z,66.33
2018-03-02T01:01:34.898Z,66.68
2018-03-02T01:04:02.500Z,66.30
2018-03-02T01:06:30.155Z,66.22
2018-03-02T01:08:57.777Z,66.52
2018-03-02T01:11:25.360Z,66.67
2018-03-02T01:13:53.020Z,66.71
2018-03-02T01:16:20.602Z,66.87
2018-03-02T01:18:48.180Z,66.97
2018-03-02T01:21:15.957Z,66.85
2018-03-02T01:23:43.665Z,66.92
2018-03-02T01:26:11.655Z,66.95
2018-03-02T01:28:39.315Z,67.14
2018-03-02T01:31:07.107Z,67.12
2018-03-02T01:33:34.982Z,67.38
2018-03-02T01:36:02.588Z,67.45
2018-03-02T01:38:30.438Z,67.54
2018-03-02T01:40:58.105Z,67.38
2018-03-02T01:43:25.851Z,67.67
2018-03-02T01:45:53.619Z,67.65
2018-03-02T01:48:21.444Z,67.54
2018-03-02T01:50:49.323Z,67.64
2018-03-02T01:53:17.169Z,67.77
2018-03-02T01:55:44.806Z,67.99
2018-03-02T01:58:12.547Z,67.97
2018-03-02T02:00:40.233Z,68.01
2018-03-02T02:03:07.820Z,68.16
2018-03-02T02:05:35.480Z,68.21
2018-03-02T02:08:03.216Z,68.38
2018-03-02T02:10:31.035Z,68.47
2018-03-02T02:12:58.873Z,68.59
2018-03-02T02:15:26.474Z,68.50
2018-03-02T02:17:54.264Z,68.52
2018-03-02T02:20:21.921Z,68.68
2018-03-02T02:22:49.610Z,68.69
2018-03-02T02:25:17.396Z,68.87
2018-03-02T02:27:45.050Z,69.02
2018-03-02T02:30:12.848Z,69.10
2018-03-02T02:32:40.475Z,69.08
2018-03-02T02:35:08.060Z,68.99
2018-03-02T02:37:35.879Z,69.20
2018-03-02T02:40:03.758Z,69.36
2018-03-02T02:42:31.528Z,69.50
2018-03-02T02:44:59.153Z,69.48
2018-03-02T02:47:26.984Z,69.59
2018-03-02T02:49:54.757Z,69.58
2018-03-02T02:52:22.425Z,69.77
2018-03-02T02:54:50.218Z,69.80
2018-03-02T02:57:17.979Z,69.95
2018-03-02T02:59:45.773Z,69.89
2018-03-02T03:02:13.537Z,70.07
2018-03-02T03:04:41.429Z,70.24
2018-03-02T03:07:09.152Z,70.37
2018-03-02T03:09:36.879Z,70.25
2018-03-02T03:12:04.647Z,70.38
2018-03-02T03:14:32.434Z,70.41
2018-03-02T03:17:00.168Z,70.51
2018-03-02T03:19:27.880Z,70.54
2018-03-02T03:21:55.549Z,70.49
2018-03-02T03:24:23.228Z,70.44
2018-03-02T03:26:50.877Z,70.55
2018-03-02T03:29:18.691Z,70.79
2018-03-02T03:31:46.355Z,70.97
2018-03-02T03:34:14.104Z,70.86
2018-03-02T03:36:41.928Z,70.81
2018-03-02T03:39:09.802Z,70.76
2018-03-02T03:41:37.573Z,70.70
2018-03-02T03:44:05.363Z,70.87
2018-03-02T03:46:33.111Z,70.98
2018-03-02T03:49:00.698Z,70.93
2018-03-02T03:51:28.345Z,71.00
2018-03-02T03:53:56.012Z,71.17
2018-03-02T03:56:23.617Z,71.16
2018-03-02T03:58:51.294Z,71.40
2018-03-02T04:01:18.980Z,71.28
2018-03-02T04:03:46.560Z,71.36
2018-03-02T04:06:14.194Z,71.43
2018-03-02T04:08:41.906Z,71.48
2018-03-02T04:11:09.786Z,71.55
2018-03-02T04:13:37.379Z,71.53
2018-03-02T04:16:05.035Z,71.47
2018-03-02T04:18:32.702Z,71.60
2018-03-02T04:21:00.375Z,71.79
2018-03-02T04:23:28.162Z,71.77
2018-03-02T04:25:56.045Z,71.68
2018-03-02T04:28:23.712Z,71.79
2018-03-02T04:30:51.392Z,71.78
2018-03-02T04:33:19.061Z,71.80
2018-03-02T04:35:46.857Z,71.68
2018-03-02T04:38:14.582Z,71.81
2018-03-02T04:40:42.217Z,71.99
2018-03-02T04:43:10.164Z,72.01
2018-03-02T04:45:38.014Z,71.96
2018-03-02T04:48:05.631Z,72.08
2018-03-02T04:50:33.257Z,72.06
2018-03-02T04:53:00.979Z,71.99
2018-03-02T04:55:28.646Z,72.12
2018-03-02T04:57:56.252Z,72.26
2018-03-02T05:00:23.911Z,72.15
2018-03-02T05:02:51.572Z,72.29
2018-03-02T05:05:19.157Z,72.32
2018-03-02T05:07:46.817Z,72.17
2018-03-02T05:10:14.500Z,72.28
2018-03-02T05:12:42.175Z,72.51
2018-03-02T05:15:09.957Z,72.40
2018-03-02T05:17:37.735Z,72.31
2018-03-02T05:20:05.405Z,72.25
2018-03-02T05:22:33.062Z,72.43
2018-03-02T05:25:00.869Z,72.30
2018-03-02T05:27:28.453Z,72.28
2018-03-02T05:29:56.098Z,72.32
2018-03-02T05:32:23.694Z,72.40
2018-03-02T05:34:51.346Z,72.37
2018-03-02T05:37:19.096Z,72.50
2018-03-02T05:39:46.807Z,72.47
2018-03-02T05:42:14.388Z,72.64
2018-03-02T05:44:42.115Z,72.73
2018-03-02T05:47:09.734Z,72.74
2018-03-02T05:49:37.473Z,72.94
2018-03-02T05:52:05.290Z,72.74
2018-03-02T05:54:33.070Z,72.71
2018-03-02T05:57:00.851Z,72.80
2018-03-02T05:59:28.689Z,73.06
2018-03-02T06:01:56.453Z,72.97
2018-03-02T06:04:24.143Z,72.97
2018-03-02T06:06:51.777Z,73.00
2018-03-02T06:09:19.562Z,73.01
2018-03-02T06:11:47.221Z,73.20
2018-03-02T06:14:14.813Z,73.50
2018-03-02T06:16:42.557Z,73.31
2018-03-02T06:19:10.338Z,73.28
2018-03-02T06:21:37.916Z,73.47
2018-03-02T06:24:05.687Z,73.62
2018-03-02T06:26:33.362Z,73.51
2018-03-02T06:29:01.031Z,73.62
2018-03-02T06:31:28.952Z,73.68
2018-03-02T06:33:56.584Z,73.68
2018-03-02T06:36:24.241Z,73.69
2018-03-02T06:38:51.928Z,73.62
2018-03-02T06:41:19.630Z,73.56
2018-03-02T06:43:47.294Z,73.56
2018-03-02T06:46:14.886Z,73.67
2018-03-02T06:48:42.639Z,73.81
2018-03-02T06:51:10.422Z,73.56
2018-03-02T06:53:38.091Z,73.75
2018-03-02T06:56:05.877Z,73.65
2018-03-02T06:58:33.652Z,73.73
2018-03-02T07:01:01.328Z,73.75
2018-03-02T07:03:29.109Z,73.69
2018-03-02T07:05:56.769Z,73.43
2018-03-02T07:08:24.445Z,73.52
2018-03-02T07:10:52.133Z,73.39
2018-03-02T07:13:20.032Z,73.33
2018-03-02T07:15:47.787Z,73.37
2018-03-02T07:18:15.386Z,73.26
2018-03-02T07:20:43.099Z,73.32
2018-03-02T07:23:10.814Z,73.04
2018-03-02T07:25:38.379Z,72.88
2018-03-02T07:28:06.022Z,72.95
2018-03-02T07:30:33.638Z,72.64
2018-03-02T07:33:01.350Z,72.59
2018-03-02T07:35:29.079Z,72.75
2018-03-02T07:37:56.762Z,72.71
2018-03-02T07:40:24.436Z,72.56
2018-03-02T07:42:52.104Z,72.28
2018-03-02T07:45:19.675Z,72.16
2018-03-02T07:47:47.464Z,71.96
2018-03-02T07:50:15.071Z,71.61
2018-03-02T07:52:42.864Z,71.41
2018-03-02T07:55:10.444Z,71.70
2018-03-02T07:57:38.041Z,71.37
2018-03-02T08:00:05.841Z,71.42
2018-03-02T08:02:33.423Z,71.35
2018-03-02T08:05:01.138Z,71.14
2018-03-02T08:07:28.784Z,70.87
2018-03-02T08:09:56.538Z,70.85
2018-03-02T08:12:24.313Z,70.61
2018-03-02T08:14:51.966Z,71.06
2018-03-02T08:17:19.540Z,70.47
2018-03-02T08:19:47.130Z,70.21
2018-03-02T08:22:14.770Z,70.38
2018-03-02T08:24:42.477Z,70.04
2018-03-02T08:27:10.211Z,70.18
2018-03-02T08:29:37.883Z,69.95
2018-03-02T08:32:05.504Z,69.84
2018-03-02T08:34:33.174Z,69.36
2018-03-02T08:37:00.858Z,69.21
2018-03-02T08:39:28.537Z,69.02
2018-03-02T08:41:56.116Z,68.84
2018-03-02T08:44:23.885Z,68.12
2018-03-02T08:46:51.505Z,68.03
2018-03-02T08:49:19.105Z,67.58
2018-03-02T08:51:46.735Z,67.83
2018-03-02T08:54:14.440Z,67.60
2018-03-02T08:56:42.101Z,67.07
2018-03-02T08:59:09.818Z,67.02
2018-03-02T09:01:37.560Z,66.66
2018-03-02T09:04:05.188Z,66.79
2018-03-02T09:06:32.842Z,66.55
2018-03-02T09:09:00.535Z,66.51
2018-03-02T09:11:28.320Z,66.12
2018-03-02T09:13:55.930Z,65.79
2018-03-02T09:16:23.532Z,65.33
2018-03-02T09:18:51.344Z,65.25
2018-03-02T09:21:19.111Z,64.70
2018-03-02T09:23:46.708Z,64.80
2018-03-02T09:26:14.287Z,64.42
2018-03-02T09:28:42.134Z,64.39
2018-03-02T09:31:09.817Z,63.99
2018-03-02T09:33:37.501Z,63.82
2018-03-02T09:36:05.158Z,63.55
2018-03-02T09:38:32.801Z,63.14
2018-03-02T09:41:00.371Z,62.84
2018-03-02T09:43:27.971Z,62.47
2018-03-02T09:45:55.629Z,62.67
2018-03-02T09:48:23.445Z,62.38
2018-03-02T09:50:51.120Z,62.05
2018-03-02T09:53:18.775Z,61.65
2018-03-02T09:55:46.576Z,61.55
2018-03-02T09:58:14.249Z,61.31
2018-03-02T10:00:41.912Z,61.43
2018-03-02T10:03:09.586Z,61.23
2018-03-02T10:05:37.231Z,61.45
2018-03-02T10:08:04.859Z,61.59
2018-03-02T10:10:32.587Z,61.09
2018-03-02T10:13:00.196Z,60.53
2018-03-02T10:15:27.875Z,59.86
2018-03-02T10:17:55.533Z,59.93
2018-03-02T10:20:23.209Z,59.74
2018-03-02T10:22:50.891Z,59.63
2018-03-02T10:25:18.569Z,59.50
2018-03-02T10:27:46.206Z,59.47
2018-03-02T10:30:13.836Z,59.17
2018-03-02T10:32:41.457Z,59.19
2018-03-02T10:35:09.274Z,58.79
2018-03-02T10:37:37.157Z,58.78
2018-03-02T10:40:04.828Z,58.43
2018-03-02T10:42:32.504Z,58.24
2018-03-02T10:45:00.292Z,57.92
2018-03-02T10:47:28.009Z,57.52
2018-03-02T10:49:55.735Z,57.13
2018-03-02T10:52:23.327Z,57.29
2018-03-02T10:54:50.986Z,57.03
2018-03-02T10:57:18.765Z,56.72
2018-03-02T10:59:46.335Z,56.51
2018-03-02T11:02:19.715Z,56.48
2018-03-02T11:04:47.422Z,56.31
2018-03-02T11:07:15.190Z,56.23
2018-03-02T11:09:42.783Z,55.97
2018-03-02T11:12:10.417Z,55.20
2018-03-02T11:14:38.028Z,54.91
2018-03-02T11:17:05.788Z,54.88
2018-03-02T11:19:33.355Z,54.56
2018-03-02T11:22:01.028Z,54.44
2018-03-02T11:24:28.595Z,54.40
2018-03-02T11:26:56.292Z,54.41
2018-03-02T11:29:23.914Z,54.55
2018-03-02T11:31:51.487Z,54.14
2018-03-02T11:34:19.218Z,54.01
2018-03-02T11:36:46.895Z,53.79
2018-03-02T11:39:14.472Z,53.84
2018-03-02T11:41:42.140Z,53.37
2018-03-02T11:44:09.802Z,53.12
2018-03-02T11:46:37.483Z,52.67
2018-03-02T11:49:05.370Z,51.98
2018-03-02T11:51:33.103Z,52.17
2018-03-02T11:54:00.724Z,51.73
2018-03-02T11:56:28.385Z,51.86
2018-03-02T11:58:56.097Z,51.56
2018-03-02T12:01:23.752Z,52.05
2018-03-02T12:03:51.403Z,51.54
2018-03-02T12:06:19.106Z,51.45
2018-03-02T12:08:46.751Z,51.28
2018-03-02T12:11:14.345Z,50.96
2018-03-02T12:13:41.948Z,51.39
2018-03-02T12:16:09.572Z,51.21
2018-03-02T12:18:37.140Z,51.32
2018-03-02T12:21:04.842Z,50.93
2018-03-02T12:23:32.507Z,50.48
2018-03-02T12:26:00.078Z,49.82
2018-03-02T12:28:27.763Z,49.80
2018-03-02T12:30:55.345Z,49.44
2018-03-02T12:33:22.922Z,49.28
2018-03-02T12:35:50.573Z,48.78
2018-03-02T12:38:18.255Z,48.96
2018-03-02T12:40:45.822Z,49.33
2018-03-02T12:43:13.635Z,48.94
2018-03-02T12:45:41.227Z,49.02
2018-03-02T12:48:09.071Z,49.08
2018-03-02T12:50:36.693Z,48.64
2018-03-02T12:53:04.351Z,48.62
2018-03-02T12:55:31.937Z,48.27
2018-03-02T12:57:59.523Z,47.93
2018-03-02T13:00:27.134Z,47.57
2018-03-02T13:02:55.020Z,47.72
2018-03-02T13:05:22.785Z,47.16
2018-03-02T13:07:50.678Z,46.86
2018-03-02T13:10:18.248Z,47.08
2018-03-02T13:12:45.922Z,46.96
2018-03-02T13:15:13.591Z,46.72
2018-03-02T13:17:41.321Z,46.30
2018-03-02T13:20:08.938Z,46.24
2018-03-02T13:22:43.287Z,45.71
2018-03-02T13:25:10.866Z,46.01
2018-03-02T13:27:50.407Z,46.00
2018-03-02T13:30:18.288Z,46.06
2018-03-02T13:32:51.874Z,45.82
2018-03-02T13:35:19.551Z,46.43
2018-03-02T13:37:47.127Z,46.43
2018-03-02T13:40:26.605Z,46.45
2018-03-02T13:42:54.276Z,46.34
2018-03-02T13:45:22.163Z,46.20
2018-03-02T13:51:02.865Z,45.91
2018-03-02T13:53:30.554Z,45.80
2018-03-02T13:55:58.230Z,44.90
2018-03-02T13:58:25.868Z,45.57
2018-03-02T14:00:53.454Z,45.88
2018-03-02T14:03:33.138Z,45.35
2018-03-02T14:06:00.808Z,45.28
2018-03-02T14:08:28.466Z,45.18
2018-03-02T14:10:56.098Z,44.78
2018-03-02T14:13:23.709Z,44.94
2018-03-02T14:15:51.583Z,45.24
2018-03-02T14:18:19.296Z,44.54
2018-03-02T14:20:46.949Z,44.54
2018-03-02T14:23:14.760Z,44.80
2018-03-02T14:25:42.718Z,44.90
2018-03-02T14:28:10.324Z,44.92
2018-03-02T14:30:37.972Z,44.80
2018-03-02T14:33:05.581Z,44.98
2018-03-02T14:35:33.197Z,45.05
2018-03-02T14:38:00.770Z,45.24
2018-03-02T14:40:28.366Z,45.23
2018-03-02T14:42:56.042Z,45.56
2018-03-02T14:45:23.612Z,45.26
2018-03-02T14:47:51.295Z,45.24
2018-03-02T14:50:19.068Z,45.30
2018-03-02T14:52:46.738Z,45.47
2018-03-02T14:55:14.321Z,45.67
2018-03-02T14:57:41.981Z,45.51
2018-03-02T15:00:09.556Z,45.80
2018-03-02T15:02:37.152Z,45.76
2018-03-02T15:05:04.776Z,45.62
2018-03-02T15:07:32.393Z,45.62
2018-03-02T15:09:59.986Z,45.51
2018-03-02T15:12:27.687Z,45.26
2018-03-02T15:14:55.400Z,45.55
2018-03-02T15:17:23.073Z,45.37
2018-03-02T15:19:50.756Z,45.30
2018-03-02T15:22:18.426Z,45.17
2018-03-02T15:24:46.212Z,45.17
2018-03-02T15:27:13.888Z,45.19
2018-03-02T15:29:41.565Z,45.05
2018-03-02T15:32:09.214Z,45.08
2018-03-02T15:34:36.918Z,45.17
2018-03-02T15:37:04.571Z,45.34
2018-03-02T15:39:32.370Z,45.62
2018-03-02T15:42:00.050Z,45.53
2018-03-02T15:44:28.745Z,45.58
2018-03-02T15:46:56.533Z,45.70
2018-03-02T15:49:24.254Z,45.40
2018-03-02T15:51:51.977Z,45.72
2018-03-02T15:54:19.643Z,45.62
2018-03-02T15:56:47.327Z,45.43
2018-03-02T15:59:14.928Z,45.24
2018-03-02T16:01:42.572Z,44.83
2018-03-02T16:04:10.240Z,44.76
2018-03-02T16:06:37.905Z,44.42
2018-03-02T16:09:05.597Z,44.55
2018-03-02T16:11:33.259Z,44.36
2018-03-02T16:14:00.827Z,44.39
2018-03-02T16:16:28.631Z,44.78
2018-03-02T16:18:56.288Z,44.87
2018-03-02T16:21:23.970Z,44.58
2018-03-02T16:23:51.583Z,44.70
2018-03-02T16:26:19.217Z,44.68
2018-03-02T16:28:46.806Z,44.72
2018-03-02T16:31:14.421Z,44.98
2018-03-02T16:33:42.057Z,44.84
2018-03-02T16:36:09.708Z,44.87
2018-03-02T16:38:37.382Z,45.09
2018-03-02T16:41:05.182Z,45.47
2018-03-02T16:43:32.855Z,45.56
2018-03-02T16:46:00.534Z,45.96
2018-03-02T16:48:28.304Z,45.99
2018-03-02T16:50:56.086Z,46.06
2018-03-02T16:53:23.723Z,46.32
2018-03-02T16:55:51.324Z,46.35
2018-03-02T16:58:19.011Z,47.16
2018-03-02T17:00:46.644Z,46.79
2018-03-02T17:03:14.257Z,46.82
2018-03-02T17:05:41.863Z,47.07
2018-03-02T17:08:09.511Z,47.40
2018-03-02T17:10:37.177Z,46.81
2018-03-02T17:13:04.835Z,47.19
2018-03-02T17:15:32.521Z,47.28
2018-03-02T17:18:00.131Z,47.41
2018-03-02T17:20:27.729Z,48.64
2018-03-02T17:22:55.544Z,49.15
2018-03-02T17:25:23.123Z,49.04
2018-03-02T17:27:50.743Z,49.10
2018-03-02T17:30:18.378Z,49.42
2018-03-02T17:32:46.054Z,49.37
2018-03-02T17:35:13.717Z,49.81
2018-03-02T17:37:41.508Z,49.76
2018-03-02T17:40:09.102Z,50.23
2018-03-02T17:42:36.695Z,50.59
2018-03-02T17:45:04.414Z,51.13
2018-03-02T17:47:32.094Z,51.38
2018-03-02T17:49:59.669Z,51.63
2018-03-02T17:52:27.328Z,51.82
2018-03-02T17:54:54.899Z,51.82
2018-03-02T17:57:22.606Z,52.13
2018-03-02T17:59:50.276Z,52.48
2018-03-02T18:02:17.953Z,51.93
2018-03-02T18:04:45.534Z,52.56
2018-03-02T18:07:13.289Z,52.46
2018-03-02T18:09:40.949Z,52.75
2018-03-02T18:12:08.515Z,52.81
2018-03-02T18:14:36.227Z,52.92
2018-03-02T18:17:03.809Z,53.10
2018-03-02T18:19:31.464Z,53.86
2018-03-02T18:21:59.357Z,54.05
2018-03-02T18:24:27.122Z,53.74
2018-03-02T18:26:54.810Z,54.21
2018-03-02T18:29:22.439Z,54.65
2018-03-02T18:31:50.046Z,54.89
2018-03-02T18:34:17.628Z,54.87
2018-03-02T18:36:45.299Z,54.91
2018-03-02T18:39:12.911Z,55.12
2018-03-02T18:41:40.761Z,55.41
2018-03-02T18:44:08.543Z,55.95
2018-03-02T18:46:36.193Z,56.17
2018-03-02T18:49:03.831Z,56.72
2018-03-02T18:51:31.455Z,57.11
2018-03-02T18:53:59.141Z,56.02
2018-03-02T18:56:26.725Z,56.76
2018-03-02T18:58:54.479Z,56.42
2018-03-02T19:01:22.154Z,56.66
2018-03-02T19:03:49.841Z,57.10
2018-03-02T19:06:17.473Z,57.47
2018-03-02T19:08:45.183Z,58.05
2018-03-02T19:11:12.971Z,58.41
2018-03-02T19:13:40.624Z,58.49
2018-03-02T19:16:08.322Z,59.23
2018-03-02T19:18:35.897Z,59.57
2018-03-02T19:21:03.770Z,59.59
2018-03-02T19:23:31.399Z,60.00
2018-03-02T19:25:59.124Z,60.87
2018-03-02T19:28:27.007Z,60.80
2018-03-02T19:30:54.862Z,61.12
2018-03-02T19:33:22.665Z,61.15
2018-03-02T19:35:50.516Z,61.20
2018-03-02T19:38:18.323Z,61.90
2018-03-02T19:40:46.206Z,62.02
2018-03-02T19:43:14.065Z,62.29
2018-03-02T19:45:41.863Z,62.80
2018-03-02T19:48:09.564Z,63.07
2018-03-02T19:50:37.489Z,62.64
2018-03-02T19:53:05.282Z,62.81
2018-03-02T19:55:33.074Z,62.92
2018-03-02T19:58:00.954Z,63.09
2018-03-02T20:00:28.706Z,63.29
2018-03-02T20:02:56.510Z,63.38
2018-03-02T20:05:24.398Z,63.60
2018-03-02T20:07:52.169Z,63.86
2018-03-02T20:10:19.947Z,64.12
2018-03-02T20:12:47.827Z,64.12
2018-03-02T20:15:15.710Z,64.07
2018-03-02T20:17:43.571Z,64.48
2018-03-02T20:20:11.334Z,64.81
2018-03-02T20:22:39.043Z,64.34
2018-03-02T20:25:06.820Z,64.63
2018-03-02T20:27:34.596Z,64.81
2018-03-02T20:30:02.478Z,64.85
2018-03-02T20:32:30.060Z,65.03
2018-03-02T20:34:57.721Z,65.03
2018-03-02T20:37:25.497Z,64.92
2018-03-02T20:39:53.176Z,65.22
2018-03-02T20:42:20.932Z,65.00
2018-03-02T20:44:48.541Z,65.24
2018-03-02T20:47:16.266Z,65.19
2018-03-02T20:49:43.877Z,65.41
2018-03-02T20:52:11.551Z,65.82
2018-03-02T20:54:39.432Z,65.82
2018-03-02T20:57:07.095Z,65.63
2018-03-02T20:59:34.888Z,65.49
2018-03-02T21:02:02.560Z,65.65
2018-03-02T21:04:30.320Z,66.13
2018-03-02T21:06:57.896Z,66.31
2018-03-02T21:09:25.513Z,65.92
2018-03-02T21:11:53.775Z,66.38
2018-03-02T21:14:21.354Z,66.36
2018-03-02T21:16:48.967Z,66.31
2018-03-02T21:19:16.701Z,66.74
2018-03-02T21:21:44.372Z,66.79
2018-03-02T21:24:11.970Z,66.82
2018-03-02T21:26:39.621Z,66.95
2018-03-02T21:29:07.287Z,66.84
2018-03-02T21:31:34.859Z,66.90
2018-03-02T21:34:02.486Z,66.70
2018-03-02T21:36:30.209Z,66.99
2018-03-02T21:38:57.774Z,67.13
2018-03-02T21:41:25.458Z,67.21
2018-03-02T21:43:53.079Z,66.91
2018-03-02T21:46:20.655Z,67.23
2018-03-02T21:48:48.278Z,67.36
2018-03-02T21:51:15.898Z,67.24
2018-03-02T21:53:43.532Z,67.30
2018-03-02T21:56:11.199Z,67.20
2018-03-02T21:58:38.767Z,67.52
2018-03-02T22:01:06.463Z,67.60
2018-03-02T22:03:34.238Z,67.68
2018-03-02T22:06:01.864Z,67.72
2018-03-02T22:08:30.518Z,67.67
2018-03-02T22:10:58.138Z,68.20
2018-03-02T22:13:25.704Z,67.71
2018-03-02T22:15:53.290Z,68.00
2018-03-02T22:18:20.892Z,68.20
2018-03-02T22:20:48.506Z,67.99
2018-03-02T22:23:16.100Z,68.45
2018-03-02T22:25:43.822Z,68.69
2018-03-02T22:28:11.457Z,68.32
2018-03-02T22:30:39.083Z,68.15
2018-03-02T22:33:06.658Z,68.43
2018-03-02T22:35:34.432Z,68.40
2018-03-02T22:38:02.096Z,68.44
2018-03-02T22:40:29.773Z,68.45
2018-03-02T22:42:57.387Z,68.62
2018-03-02T22:45:25.016Z,68.47
2018-03-02T22:47:52.639Z,68.76
2018-03-02T22:50:20.271Z,68.70
2018-03-02T22:52:47.847Z,68.80
2018-03-02T22:55:15.460Z,68.75
2018-03-02T22:57:43.040Z,68.81
2018-03-02T23:00:10.777Z,68.84
2018-03-02T23:02:38.362Z,68.89
2018-03-02T23:05:06.072Z,68.90
2018-03-02T23:07:33.661Z,68.28
2018-03-02T23:10:01.293Z,68.36
2018-03-02T23:12:28.952Z,68.38
2018-03-02T23:14:56.524Z,68.59
2018-03-02T23:17:24.145Z,68.59
2018-03-02T23:19:51.773Z,68.47
2018-03-02T23:22:19.426Z,68.83
2018-03-02T23:24:47.121Z,69.00
2018-03-02T23:27:14.902Z,69.34
2018-03-02T23:29:42.485Z,69.24
2018-03-02T23:32:10.255Z,68.83
2018-03-02T23:34:37.887Z,68.93
2018-03-02T23:37:05.486Z,68.52
2018-03-02T23:39:33.127Z,68.30
2018-03-02T23:42:00.855Z,68.62
2018-03-02T23:44:28.438Z,68.65
2018-03-02T23:46:56.199Z,68.61
2018-03-02T23:49:23.873Z,68.77
2018-03-02T23:51:51.606Z,69.05
2018-03-02T23:54:19.184Z,68.80
2018-03-02T23:56:46.761Z,68.96
2018-03-02T23:59:14.524Z,69.46
